Terminal Aerodrome Forecast
Issued by NWS

Home | Current Version | Previous Version | Graphics & Text | Print | Product List | Glossary On
Versions: 1 2 3 4 5 6 7 8 9 10 11 12 13 14 15 16 17 18 19
000
FTUS43 KFGF 280520
TAFBJI
TAF
KBJI 280520Z 2806/2906 34005KT P6SM SCT025
     FM281000 01005KT P6SM BKN015
     FM281500 01005KT P6SM BKN020
     FM281700 02006KT P6SM BKN035
     FM281800 02006KT P6SM SCT035
     FM290000 04004KT P6SM FEW150=

USA.gov is the U.S. government's official web portal to all federal, state and local government web resources and services.